Hagi, Japan

8:21 PM JST on February 10, 2016 (GMT +0900)
Iwami | | Change Station
CLOSE
Current Station
Airport
Location: Iwami,
Elevation: 177 ft
Nearby Weather Stations

Elev 177 ft 34.68 °N, 131.79 °E | Updated 1 hour ago

Clear
Clear
39 °F
Feels Like 37 °F
N
4
Wind Variable Wind from ESE

Today
High -- | Low -- °F
--% Chance of Precip.
Yesterday
High -- | Low -- °F
Precip. -- in
Pressure 30.30 in
Visibility -9999.0 miles
Clouds
Windchill 37 °F
Dew Point 30 °F
Humidity 70%
Rainfall 0.00 in
Snow Depth Not available.
7:05 AM 5:52 PM
Waxing Crescent, 5% visible
METAR RJOW 101000Z 11003KT CAVOK 04/M01 Q1026
Pressure 30.30 in
Visibility -9999.0 miles
Clouds
Windchill 37 °F
Dew Point 30 °F
Humidity 70%
Rainfall 0.00 in
Snow Depth Not available.
7:05 AM 5:52 PM
Waxing Crescent, 5% visible
METAR RJOW 101000Z 11003KT CAVOK 04/M01 Q1026

10-Day Weather Forecast

No radar image for this location.
×

Almanac

Astronomy

Feb. 10, 2016 Rise Set
Actual Time
Civil Twilight
Nautical Twilight
Astronomical Twilight
Moon
Length of Visible Light
Length of Day
Tomorrow will be .
, % of the Moon is Illuminated

Today's Extremes

Country Highs Country Lows

Community

WunderPhotos

Upload Photos

1,891,830 photos uploaded!

WunderBlog® & News

Nearby

Air Quality

  Air Quality AQ Index Pollutant
Not available.

Snow Depth

Station Depth Elevation

Earthquake Activity

City Distance Mag. Time & Date
Minimum magnitude displayed is 2.5.

Coastal Water Temperatures

Place Temperature

Stations

Nearby Weather Stations

Station Location Temp. Windchill Dew Point Humidity Wind Precip. Elev Updated Type